sensor_id;sensor_type;location;lat;lon;timestamp;pressure;altitude;pressure_sealevel;temperature;humidity
19596;BME280;9945;46.010;8.946;2023-04-01T00:01:28;96237.69;;;9.43;100.00
19596;BME280;9945;46.010;8.946;2023-04-01T00:03:55;96226.59;;;9.41;100.00
19596;BME280;9945;46.010;8.946;2023-04-01T00:06:22;96214.34;;;9.33;100.00
19596;BME280;9945;46.010;8.946;2023-04-01T00:08:49;96209.13;;;9.33;100.00
19596;BME280;9945;46.010;8.946;2023-04-01T00:11:18;96207.34;;;9.34;100.00
19596;BME280;9945;46.010;8.946;2023-04-01T00:13:45;96202.41;;;9.39;100.00
19596;BME280;9945;46.010;8.946;2023-04-01T00:16:12;96204.06;;;9.32;100.00
19596;BME280;9945;46.010;8.946;2023-04-01T00:18:41;96207.34;;;9.26;100.00
19596;BME280;9945;46.010;8.946;2023-04-01T00:21:08;96205.69;;;9.33;100.00
19596;BME280;9945;46.010;8.946;2023-04-01T00:23:35;96210.09;;;9.32;100.00
19596;BME280;9945;46.010;8.946;2023-04-01T00:26:02;96208.78;;;9.28;100.00
19596;BME280;9945;46.010;8.946;2023-04-01T00:28:31;96200.63;;;9.39;100.00
19596;BME280;9945;46.010;8.946;2023-04-01T00:30:57;96214.34;;;9.33;100.00
19596;BME280;9945;46.010;8.946;2023-04-01T00:33:24;96224.28;;;9.30;100.00
19596;BME280;9945;46.010;8.946;2023-04-01T00:35:54;96219.41;;;9.27;100.00
19596;BME280;9945;46.010;8.946;2023-04-01T00:38:21;96217.59;;;9.27;100.00
19596;BME280;9945;46.010;8.946;2023-04-01T00:40:48;96209.91;;;9.50;100.00
19596;BME280;9945;46.010;8.946;2023-04-01T00:43:19;96203.38;;;9.38;100.00
19596;BME280;9945;46.010;8.946;2023-04-01T00:45:48;96206.00;;;9.30;100.00
19596;BME280;9945;46.010;8.946;2023-04-01T00:48:18;96198.03;;;9.23;100.00
19596;BME280;9945;46.010;8.946;2023-04-01T00:50:48;96196.72;;;9.19;100.00
19596;BME280;9945;46.010;8.946;2023-04-01T00:53:19;96196.25;;;9.07;100.00
19596;BME280;9945;46.010;8.946;2023-04-01T00:55:51;96197.53;;;9.03;100.00
19596;BME280;9945;46.010;8.946;2023-04-01T00:58:21;96187.09;;;9.11;100.00
19596;BME280;9945;46.010;8.946;2023-04-01T01:00:51;96193.28;;;9.02;100.00
19596;BME280;9945;46.010;8.946;2023-04-01T01:03:18;96177.00;;;9.08;100.00
19596;BME280;9945;46.010;8.946;2023-04-01T01:06:00;96189.56;;;8.97;100.00
19596;BME280;9945;46.010;8.946;2023-04-01T01:08:41;96180.75;;;8.98;100.00
19596;BME280;9945;46.010;8.946;2023-04-01T01:11:10;96181.25;;;9.01;100.00
19596;BME280;9945;46.010;8.946;2023-04-01T01:13:43;96182.53;;;8.97;100.00
19596;BME280;9945;46.010;8.946;2023-04-01T01:16:19;96179.94;;;8.97;100.00
19596;BME280;9945;46.010;8.946;2023-04-01T01:18:53;96185.16;;;8.97;100.00
19596;BME280;9945;46.010;8.946;2023-04-01T01:21:50;96179.94;;;8.97;100.00
19596;BME280;9945;46.010;8.946;2023-04-01T01:24:41;96185.00;;;8.99;100.00
19596;BME280;9945;46.010;8.946;2023-04-01T01:27:10;96187.44;;;9.08;100.00
19596;BME280;9945;46.010;8.946;2023-04-01T01:29:48;96179.75;;;9.07;100.00
19596;BME280;9945;46.010;8.946;2023-04-01T01:32:36;96191.50;;;8.95;100.00
19596;BME280;9945;46.010;8.946;2023-04-01T01:35:16;96191.84;;;9.00;100.00
19596;BME280;9945;46.010;8.946;2023-04-01T01:37:47;96197.22;;;8.98;100.00
19596;BME280;9945;46.010;8.946;2023-04-01T01:40:17;96193.47;;;9.01;100.00
19596;BME280;9945;46.010;8.946;2023-04-01T01:42:48;96196.72;;;8.95;100.00
19596;BME280;9945;46.010;8.946;2023-04-01T01:45:18;96191.03;;;8.99;100.00
19596;BME280;9945;46.010;8.946;2023-04-01T01:47:47;96185.31;;;9.04;100.00
19596;BME280;9945;46.010;8.946;2023-04-01T01:50:17;96183.66;;;9.03;100.00
19596;BME280;9945;46.010;8.946;2023-04-01T01:52:44;96182.22;;;9.00;100.00
19596;BME280;9945;46.010;8.946;2023-04-01T01:55:27;96193.47;;;9.01;100.00
19596;BME280;9945;46.010;8.946;2023-04-01T01:57:56;96182.53;;;8.97;100.00
19596;BME280;9945;46.010;8.946;2023-04-01T02:00:24;96177.81;;;9.01;100.00
19596;BME280;9945;46.010;8.946;2023-04-01T02:02:52;96180.25;;;8.94;100.00
19596;BME280;9945;46.010;8.946;2023-04-01T02:05:24;96174.06;;;8.95;100.00
19596;BME280;9945;46.010;8.946;2023-04-01T02:07:57;96174.06;;;8.87;100.00
19596;BME280;9945;46.010;8.946;2023-04-01T02:10:28;96175.53;;;8.82;100.00
19596;BME280;9945;46.010;8.946;2023-04-01T02:13:01;96177.47;;;8.80;100.00
19596;BME280;9945;46.010;8.946;2023-04-01T02:15:31;96178.59;;;8.77;100.00
19596;BME280;9945;46.010;8.946;2023-04-01T02:17:59;96174.22;;;8.78;100.00
19596;BME280;9945;46.010;8.946;2023-04-01T02:20:28;96182.38;;;8.91;100.00
19596;BME280;9945;46.010;8.946;2023-04-01T02:22:56;96181.88;;;8.79;100.00
19596;BME280;9945;46.010;8.946;2023-04-01T02:25:27;96183.19;;;8.91;100.00
19596;BME280;9945;46.010;8.946;2023-04-01T02:27:57;96185.00;;;8.83;100.00
19596;BME280;9945;46.010;8.946;2023-04-01T02:30:27;96186.13;;;8.72;100.00
19596;BME280;9945;46.010;8.946;2023-04-01T02:32:56;96189.53;;;8.72;100.00
19596;BME280;9945;46.010;8.946;2023-04-01T02:35:24;96185.13;;;8.65;100.00
19596;BME280;9945;46.010;8.946;2023-04-01T02:37:54;96181.19;;;8.53;100.00
19596;BME280;9945;46.010;8.946;2023-04-01T02:40:21;96181.03;;;8.54;100.00
19596;BME280;9945;46.010;8.946;2023-04-01T02:42:48;96184.78;;;8.60;100.00
19596;BME280;9945;46.010;8.946;2023-04-01T02:45:15;96183.66;;;8.54;100.00
19596;BME280;9945;46.010;8.946;2023-04-01T02:47:42;96186.41;;;8.53;100.00
19596;BME280;9945;46.010;8.946;2023-04-01T02:50:09;96193.56;;;8.51;100.00
19596;BME280;9945;46.010;8.946;2023-04-01T02:52:36;96184.16;;;8.50;100.00
19596;BME280;9945;46.010;8.946;2023-04-01T02:55:05;96182.16;;;8.44;100.00
19596;BME280;9945;46.010;8.946;2023-04-01T02:57:32;96182.50;;;8.49;100.00
19596;BME280;9945;46.010;8.946;2023-04-01T02:59:59;96184.47;;;8.47;100.00
19596;BME280;9945;46.010;8.946;2023-04-01T03:02:26;96188.03;;;8.46;100.00
19596;BME280;9945;46.010;8.946;2023-04-01T03:04:53;96187.72;;;8.41;100.00
19596;BME280;9945;46.010;8.946;2023-04-01T03:07:20;96190.97;;;8.43;100.00
19596;BME280;9945;46.010;8.946;2023-04-01T03:09:47;96209.22;;;8.43;100.00
19596;BME280;9945;46.010;8.946;2023-04-01T03:12:15;96209.03;;;8.36;100.00
19596;BME280;9945;46.010;8.946;2023-04-01T03:14:42;96220.97;;;8.47;100.00
19596;BME280;9945;46.010;8.946;2023-04-01T03:17:08;96218.22;;;8.56;100.00
19596;BME280;9945;46.010;8.946;2023-04-01T03:19:35;96226.06;;;8.56;100.00
19596;BME280;9945;46.010;8.946;2023-04-01T03:22:02;96233.38;;;8.61;100.00
19596;BME280;9945;46.010;8.946;2023-04-01T03:24:29;96236.31;;;8.50;100.00
19596;BME280;9945;46.010;8.946;2023-04-01T03:26:56;96233.84;;;8.40;100.00
19596;BME280;9945;46.010;8.946;2023-04-01T03:29:24;96235.13;;;8.36;100.00
19596;BME280;9945;46.010;8.946;2023-04-01T03:31:51;96245.41;;;8.38;100.00
19596;BME280;9945;46.010;8.946;2023-04-01T03:34:18;96249.97;;;8.44;100.00
19596;BME280;9945;46.010;8.946;2023-04-01T03:36:44;96250.94;;;8.43;100.00
19596;BME280;9945;46.010;8.946;2023-04-01T03:39:11;96255.91;;;8.28;100.00
19596;BME280;9945;46.010;8.946;2023-04-01T03:41:38;96252.56;;;8.35;100.00
19596;BME280;9945;46.010;8.946;2023-04-01T03:44:05;96243.94;;;8.43;100.00
19596;BME280;9945;46.010;8.946;2023-04-01T03:46:33;96243.75;;;8.37;100.00
19596;BME280;9945;46.010;8.946;2023-04-01T03:49:00;96244.44;;;8.39;100.00
19596;BME280;9945;46.010;8.946;2023-04-01T03:51:28;96245.22;;;8.31;100.00
19596;BME280;9945;46.010;8.946;2023-04-01T03:53:54;96240.81;;;8.31;100.00
19596;BME280;9945;46.010;8.946;2023-04-01T03:56:21;96241.63;;;8.32;100.00
19596;BME280;9945;46.010;8.946;2023-04-01T03:58:48;96238.78;;;8.25;100.00
19596;BME280;9945;46.010;8.946;2023-04-01T04:01:17;96246.31;;;8.28;100.00
19596;BME280;9945;46.010;8.946;2023-04-01T04:03:47;96245.72;;;8.43;100.00
19596;BME280;9945;46.010;8.946;2023-04-01T04:06:16;96253.06;;;8.39;100.00
19596;BME280;9945;46.010;8.946;2023-04-01T04:08:44;96251.78;;;8.51;100.00
19596;BME280;9945;46.010;8.946;2023-04-01T04:11:12;96251.63;;;8.53;100.00
19596;BME280;9945;46.010;8.946;2023-04-01T04:13:39;96238.72;;;8.43;100.00
19596;BME280;9945;46.010;8.946;2023-04-01T04:16:06;96238.78;;;8.25;100.00
19596;BME280;9945;46.010;8.946;2023-04-01T04:18:34;96243.66;;;8.20;100.00
19596;BME280;9945;46.010;8.946;2023-04-01T04:21:02;96242.53;;;8.15;100.00
19596;BME280;9945;46.010;8.946;2023-04-01T04:23:29;96246.31;;;8.28;100.00
19596;BME280;9945;46.010;8.946;2023-04-01T04:25:58;96245.97;;;8.23;100.00
19596;BME280;9945;46.010;8.946;2023-04-01T04:28:26;96239.13;;;8.22;100.00
19596;BME280;9945;46.010;8.946;2023-04-01T04:30:53;96251.34;;;8.22;100.00
19596;BME280;9945;46.010;8.946;2023-04-01T04:33:20;96250.69;;;8.20;100.00
19596;BME280;9945;46.010;8.946;2023-04-01T04:35:47;96249.69;;;8.13;100.00
19596;BME280;9945;46.010;8.946;2023-04-01T04:38:16;96245.44;;;8.12;100.00
19596;BME280;9945;46.010;8.946;2023-04-01T04:40:43;96262.81;;;8.03;100.00
19596;BME280;9945;46.010;8.946;2023-04-01T04:43:12;96256.94;;;8.01;100.00
19596;BME280;9945;46.010;8.946;2023-04-01T04:45:39;96257.28;;;7.98;100.00
19596;BME280;9945;46.010;8.946;2023-04-01T04:48:07;96255.53;;;8.07;100.00
19596;BME280;9945;46.010;8.946;2023-04-01T04:50:34;96260.72;;;8.07;100.00
19596;BME280;9945;46.010;8.946;2023-04-01T04:53:02;96258.09;;;7.98;100.00
19596;BME280;9945;46.010;8.946;2023-04-01T04:55:30;96264.13;;;7.99;100.00
19596;BME280;9945;46.010;8.946;2023-04-01T04:57:57;96254.16;;;7.94;100.00
19596;BME280;9945;46.010;8.946;2023-04-01T05:00:24;96258.44;;;8.04;100.00
19596;BME280;9945;46.010;8.946;2023-04-01T05:02:50;96258.94;;;8.07;100.00
19596;BME280;9945;46.010;8.946;2023-04-01T05:05:17;96263.50;;;8.05;100.00
19596;BME280;9945;46.010;8.946;2023-04-01T05:07:44;96267.88;;;8.05;100.00
19596;BME280;9945;46.010;8.946;2023-04-01T05:10:11;96263.16;;;8.08;100.00
19596;BME280;9945;46.010;8.946;2023-04-01T05:12:39;96266.81;;;8.15;100.00
19596;BME280;9945;46.010;8.946;2023-04-01T05:15:07;96261.75;;;8.14;100.00
19596;BME280;9945;46.010;8.946;2023-04-01T05:17:34;96265.00;;;8.16;100.00
19596;BME280;9945;46.010;8.946;2023-04-01T05:20:01;96263.22;;;8.16;100.00
19596;BME280;9945;46.010;8.946;2023-04-01T05:22:29;96265.72;;;8.00;100.00
19596;BME280;9945;46.010;8.946;2023-04-01T05:24:55;96270.13;;;7.99;100.00
19596;BME280;9945;46.010;8.946;2023-04-01T05:27:22;96271.09;;;7.90;100.00
19596;BME280;9945;46.010;8.946;2023-04-01T05:29:50;96270.69;;;8.11;100.00
19596;BME280;9945;46.010;8.946;2023-04-01T05:32:17;96269.56;;;8.14;100.00
19596;BME280;9945;46.010;8.946;2023-04-01T05:34:44;96273.59;;;8.08;100.00
19596;BME280;9945;46.010;8.946;2023-04-01T05:37:11;96279.31;;;8.12;100.00
19596;BME280;9945;46.010;8.946;2023-04-01T05:39:38;96293.31;;;8.11;100.00
19596;BME280;9945;46.010;8.946;2023-04-01T05:42:06;96285.09;;;8.23;100.00
19596;BME280;9945;46.010;8.946;2023-04-01T05:44:33;96284.94;;;8.25;100.00
19596;BME280;9945;46.010;8.946;2023-04-01T05:47:02;96287.69;;;8.23;100.00
19596;BME280;9945;46.010;8.946;2023-04-01T05:49:29;96290.69;;;8.37;100.00
19596;BME280;9945;46.010;8.946;2023-04-01T05:51:56;96302.97;;;8.18;100.00
19596;BME280;9945;46.010;8.946;2023-04-01T05:54:23;96299.97;;;8.05;100.00
19596;BME280;9945;46.010;8.946;2023-04-01T05:56:50;96304.38;;;8.05;100.00
19596;BME280;9945;46.010;8.946;2023-04-01T05:59:17;96297.97;;;8.25;100.00
19596;BME280;9945;46.010;8.946;2023-04-01T06:01:43;96304.84;;;8.34;100.00
19596;BME280;9945;46.010;8.946;2023-04-01T06:04:14;96300.41;;;8.26;100.00
19596;BME280;9945;46.010;8.946;2023-04-01T06:06:42;96300.31;;;8.36;100.00
19596;BME280;9945;46.010;8.946;2023-04-01T06:09:14;96304.06;;;8.84;100.00
19596;BME280;9945;46.010;8.946;2023-04-01T06:11:51;96305.25;;;9.54;100.00
19596;BME280;9945;46.010;8.946;2023-04-01T06:14:29;96303.13;;;9.66;100.00
19596;BME280;9945;46.010;8.946;2023-04-01T06:17:13;96307.53;;;9.73;100.00
19596;BME280;9945;46.010;8.946;2023-04-01T06:19:47;96308.03;;;9.85;100.00
19596;BME280;9945;46.010;8.946;2023-04-01T06:22:42;96312.72;;;9.98;100.00
19596;BME280;9945;46.010;8.946;2023-04-01T06:25:40;96310.19;;;11.07;99.25
19596;BME280;9945;46.010;8.946;2023-04-01T06:28:37;96303.66;;;12.23;90.93
19596;BME280;9945;46.010;8.946;2023-04-01T06:31:18;96302.81;;;12.67;84.93
19596;BME280;9945;46.010;8.946;2023-04-01T06:33:59;96307.44;;;12.65;83.89
19596;BME280;9945;46.010;8.946;2023-04-01T06:37:03;96315.25;;;12.58;83.46
19596;BME280;9945;46.010;8.946;2023-04-01T06:39:47;96315.41;;;12.57;83.02
19596;BME280;9945;46.010;8.946;2023-04-01T06:42:31;96313.44;;;12.59;82.78
19596;BME280;9945;46.010;8.946;2023-04-01T06:45:13;96313.75;;;12.70;80.13
19596;BME280;9945;46.010;8.946;2023-04-01T06:47:53;96313.94;;;12.69;78.92
19596;BME280;9945;46.010;8.946;2023-04-01T06:50:30;96311.50;;;12.82;80.07
19596;BME280;9945;46.010;8.946;2023-04-01T06:53:06;96311.34;;;13.05;77.97
19596;BME280;9945;46.010;8.946;2023-04-01T06:55:39;96315.09;;;13.32;77.02
19596;BME280;9945;46.010;8.946;2023-04-01T06:58:13;96312.03;;;13.49;76.39
19596;BME280;9945;46.010;8.946;2023-04-01T07:00:46;96317.03;;;13.66;73.83
19596;BME280;9945;46.010;8.946;2023-04-01T07:03:19;96313.34;;;13.88;71.75
19596;BME280;9945;46.010;8.946;2023-04-01T07:05:47;96313.56;;;13.86;67.78
19596;BME280;9945;46.010;8.946;2023-04-01T07:08:20;96320.69;;;13.92;68.25
19596;BME280;9945;46.010;8.946;2023-04-01T07:10:52;96315.19;;;14.15;65.96
19596;BME280;9945;46.010;8.946;2023-04-01T07:13:22;96303.16;;;14.34;65.33
19596;BME280;9945;46.010;8.946;2023-04-01T07:16:07;96312.63;;;13.94;62.20
19596;BME280;9945;46.010;8.946;2023-04-01T07:18:42;96313.34;;;13.88;61.74
19596;BME280;9945;46.010;8.946;2023-04-01T07:21:22;96312.91;;;14.12;62.14
19596;BME280;9945;46.010;8.946;2023-04-01T07:23:54;96309.59;;;14.31;62.08
19596;BME280;9945;46.010;8.946;2023-04-01T07:26:24;96304.88;;;14.48;61.16
19596;BME280;9945;46.010;8.946;2023-04-01T07:28:53;96309.78;;;14.58;60.58
19596;BME280;9945;46.010;8.946;2023-04-01T07:31:36;96301.91;;;14.64;61.49
19596;BME280;9945;46.010;8.946;2023-04-01T07:34:08;96302.78;;;14.71;60.40
19596;BME280;9945;46.010;8.946;2023-04-01T07:36:39;96308.47;;;14.82;60.24
19596;BME280;9945;46.010;8.946;2023-04-01T07:39:17;96311.16;;;14.88;59.66
19596;BME280;9945;46.010;8.946;2023-04-01T07:41:54;96314.44;;;15.03;58.49
19596;BME280;9945;46.010;8.946;2023-04-01T07:44:27;96305.94;;;15.08;61.25
19596;BME280;9945;46.010;8.946;2023-04-01T07:49:53;96308.81;;;15.26;59.63
19596;BME280;9945;46.010;8.946;2023-04-01T07:52:29;96303.38;;;15.34;57.73
19596;BME280;9945;46.010;8.946;2023-04-01T07:55:09;96307.25;;;15.45;56.59
19596;BME280;9945;46.010;8.946;2023-04-01T07:57:43;96302.41;;;15.62;56.93
19596;BME280;9945;46.010;8.946;2023-04-01T08:00:19;96315.84;;;15.73;56.30
19596;BME280;9945;46.010;8.946;2023-04-01T08:03:00;96311.97;;;15.56;57.00
19596;BME280;9945;46.010;8.946;2023-04-01T08:05:39;96309.53;;;15.55;58.66
19596;BME280;9945;46.010;8.946;2023-04-01T08:08:12;96313.78;;;15.75;58.31
19596;BME280;9945;46.010;8.946;2023-04-01T08:10:49;96308.91;;;15.85;56.99
19596;BME280;9945;46.010;8.946;2023-04-01T08:13:25;96310.34;;;15.95;57.05
19596;BME280;9945;46.010;8.946;2023-04-01T08:16:03;96310.56;;;16.06;57.53
19596;BME280;9945;46.010;8.946;2023-04-01T08:18:38;96306.06;;;16.33;56.30
19596;BME280;9945;46.010;8.946;2023-04-01T08:21:11;96303.78;;;16.43;54.76
19596;BME280;9945;46.010;8.946;2023-04-01T08:23:44;96302.94;;;16.43;55.94
19596;BME280;9945;46.010;8.946;2023-04-01T08:26:28;96301.97;;;16.37;54.85
19596;BME280;9945;46.010;8.946;2023-04-01T08:29:00;96298.91;;;16.34;54.82
19596;BME280;9945;46.010;8.946;2023-04-01T08:31:32;96303.94;;;16.68;54.09
19596;BME280;9945;46.010;8.946;2023-04-01T08:34:04;96302.09;;;16.69;54.06
19596;BME280;9945;46.010;8.946;2023-04-01T08:36:37;96308.25;;;17.07;52.22
19596;BME280;9945;46.010;8.946;2023-04-01T08:39:09;96296.34;;;17.29;52.11
19596;BME280;9945;46.010;8.946;2023-04-01T08:42:01;96298.38;;;17.65;50.98
19596;BME280;9945;46.010;8.946;2023-04-01T08:44:43;96296.88;;;18.01;49.87
19596;BME280;9945;46.010;8.946;2023-04-01T08:47:40;96289.72;;;18.26;49.56
19596;BME280;9945;46.010;8.946;2023-04-01T08:50:27;96292.88;;;18.35;48.50
19596;BME280;9945;46.010;8.946;2023-04-01T08:53:03;96292.53;;;19.34;46.21
19596;BME280;9945;46.010;8.946;2023-04-01T08:55:47;96290.16;;;19.86;44.14
19596;BME280;9945;46.010;8.946;2023-04-01T08:58:48;96288.75;;;19.72;44.16
19596;BME280;9945;46.010;8.946;2023-04-01T09:01:29;96291.78;;;20.10;43.06
19596;BME280;9945;46.010;8.946;2023-04-01T09:04:25;96292.44;;;20.87;42.81
19596;BME280;9945;46.010;8.946;2023-04-01T09:07:08;96284.03;;;21.64;39.53
19596;BME280;9945;46.010;8.946;2023-04-01T09:13:20;96301.34;;;23.49;36.34
19596;BME280;9945;46.010;8.946;2023-04-01T09:16:16;96289.34;;;23.78;35.07
19596;BME280;9945;46.010;8.946;2023-04-01T09:19:02;96287.59;;;24.26;35.67
19596;BME280;9945;46.010;8.946;2023-04-01T09:21:51;96281.66;;;25.13;33.67
19596;BME280;9945;46.010;8.946;2023-04-01T09:24:42;96285.81;;;25.71;31.20
19596;BME280;9945;46.010;8.946;2023-04-01T09:27:26;96286.63;;;26.22;30.31
19596;BME280;9945;46.010;8.946;2023-04-01T09:30:19;96281.13;;;26.88;30.09
19596;BME280;9945;46.010;8.946;2023-04-01T09:33:33;96278.41;;;27.14;29.02
19596;BME280;9945;46.010;8.946;2023-04-01T09:36:16;96289.16;;;27.14;28.87
19596;BME280;9945;46.010;8.946;2023-04-01T09:38:56;96273.97;;;27.38;28.71
19596;BME280;9945;46.010;8.946;2023-04-01T09:41:29;96282.94;;;27.67;28.56
19596;BME280;9945;46.010;8.946;2023-04-01T09:44:05;96275.94;;;27.71;29.43
19596;BME280;9945;46.010;8.946;2023-04-01T09:46:54;96279.84;;;28.52;27.99
19596;BME280;9945;46.010;8.946;2023-04-01T09:52:32;96274.84;;;29.35;26.97
19596;BME280;9945;46.010;8.946;2023-04-01T09:55:28;96272.38;;;29.39;25.67
19596;BME280;9945;46.010;8.946;2023-04-01T09:58:23;96277.81;;;30.28;24.57
19596;BME280;9945;46.010;8.946;2023-04-01T10:01:19;96265.09;;;30.28;25.49
19596;BME280;9945;46.010;8.946;2023-04-01T10:13:42;96263.00;;;32.82;22.44
19596;BME280;9945;46.010;8.946;2023-04-01T10:19:49;96256.00;;;33.72;19.57
19596;BME280;9945;46.010;8.946;2023-04-01T10:22:40;96258.25;;;34.05;20.80
19596;BME280;9945;46.010;8.946;2023-04-01T10:37:14;96257.41;;;37.45;16.56
19596;BME280;9945;46.010;8.946;2023-04-01T10:40:13;96243.19;;;37.28;15.87
19596;BME280;9945;46.010;8.946;2023-04-01T10:43:19;96236.13;;;37.91;16.18
19596;BME280;9945;46.010;8.946;2023-04-01T10:49:10;96251.59;;;38.27;16.25
19596;BME280;9945;46.010;8.946;2023-04-01T10:52:20;96246.38;;;39.13;13.47
19596;BME280;9945;46.010;8.946;2023-04-01T10:55:05;96244.53;;;39.52;13.86
19596;BME280;9945;46.010;8.946;2023-04-01T11:07:15;96239.09;;;35.03;14.24
19596;BME280;9945;46.010;8.946;2023-04-01T11:13:31;96237.19;;;30.33;17.16
19596;BME280;9945;46.010;8.946;2023-04-01T11:19:31;96226.97;;;27.30;19.18
19596;BME280;9945;46.010;8.946;2023-04-01T11:22:16;96232.16;;;26.12;20.29
19596;BME280;9945;46.010;8.946;2023-04-01T11:27:56;96231.34;;;25.55;21.46
19596;BME280;9945;46.010;8.946;2023-04-01T11:30:38;96228.91;;;25.39;21.96
19596;BME280;9945;46.010;8.946;2023-04-01T11:33:14;96226.41;;;24.92;22.02
19596;BME280;9945;46.010;8.946;2023-04-01T11:35:54;96228.03;;;24.40;22.63
19596;BME280;9945;46.010;8.946;2023-04-01T11:38:48;96231.75;;;24.02;23.19
19596;BME280;9945;46.010;8.946;2023-04-01T11:41:26;96230.28;;;26.12;21.62
19596;BME280;9945;46.010;8.946;2023-04-01T11:44:10;96221.44;;;28.71;18.90
19596;BME280;9945;46.010;8.946;2023-04-01T11:46:48;96224.31;;;30.84;16.53
19596;BME280;9945;46.010;8.946;2023-04-01T11:49:29;96230.16;;;30.18;16.65
19596;BME280;9945;46.010;8.946;2023-04-01T11:52:10;96217.06;;;28.51;18.38
19596;BME280;9945;46.010;8.946;2023-04-01T11:57:43;96208.56;;;25.48;19.85
19596;BME280;9945;46.010;8.946;2023-04-01T12:00:30;96203.78;;;24.20;21.42
19596;BME280;9945;46.010;8.946;2023-04-01T12:06:16;96209.53;;;23.97;23.28
19596;BME280;9945;46.010;8.946;2023-04-01T12:08:53;96204.81;;;28.40;18.50
19596;BME280;9945;46.010;8.946;2023-04-01T12:11:29;96204.91;;;31.68;15.45
19596;BME280;9945;46.010;8.946;2023-04-01T12:14:03;96202.56;;;31.75;14.73
19596;BME280;9945;46.010;8.946;2023-04-01T12:16:47;96201.34;;;29.06;16.88
19596;BME280;9945;46.010;8.946;2023-04-01T12:19:26;96189.53;;;26.85;17.80
19596;BME280;9945;46.010;8.946;2023-04-01T12:22:08;96186.59;;;25.61;19.03
19596;BME280;9945;46.010;8.946;2023-04-01T12:24:49;96183.53;;;24.92;19.86
19596;BME280;9945;46.010;8.946;2023-04-01T12:27:41;96186.00;;;24.41;20.18
19596;BME280;9945;46.010;8.946;2023-04-01T12:30:30;96189.72;;;24.92;20.42
19596;BME280;9945;46.010;8.946;2023-04-01T12:33:10;96194.03;;;25.13;19.99
19596;BME280;9945;46.010;8.946;2023-04-01T12:35:54;96185.72;;;26.36;19.61
19596;BME280;9945;46.010;8.946;2023-04-01T12:38:30;96187.75;;;27.92;17.60
19596;BME280;9945;46.010;8.946;2023-04-01T12:41:09;96180.88;;;29.43;16.21
19596;BME280;9945;46.010;8.946;2023-04-01T12:44:06;96180.66;;;32.87;14.42
19596;BME280;9945;46.010;8.946;2023-04-01T12:46:52;96189.50;;;33.70;13.30
19596;BME280;9945;46.010;8.946;2023-04-01T12:49:36;96191.25;;;34.55;12.58
19596;BME280;9945;46.010;8.946;2023-04-01T12:52:12;96185.00;;;35.85;11.91
19596;BME280;9945;46.010;8.946;2023-04-01T12:58:07;96182.22;;;37.92;10.67
19596;BME280;9945;46.010;8.946;2023-04-01T13:00:48;96178.94;;;38.30;10.02
19596;BME280;9945;46.010;8.946;2023-04-01T13:03:39;96178.84;;;38.10;10.18
19596;BME280;9945;46.010;8.946;2023-04-01T13:06:27;96174.69;;;37.21;11.02
19596;BME280;9945;46.010;8.946;2023-04-01T13:09:03;96171.28;;;36.51;11.45
19596;BME280;9945;46.010;8.946;2023-04-01T13:11:41;96168.44;;;33.93;12.72
19596;BME280;9945;46.010;8.946;2023-04-01T13:17:10;96159.19;;;29.80;15.95
19596;BME280;9945;46.010;8.946;2023-04-01T13:19:47;96158.75;;;29.03;15.55
19596;BME280;9945;46.010;8.946;2023-04-01T13:22:21;96149.91;;;28.07;17.05
19596;BME280;9945;46.010;8.946;2023-04-01T13:24:53;96148.03;;;27.06;17.91
19596;BME280;9945;46.010;8.946;2023-04-01T13:27:29;96133.09;;;26.25;18.47
19596;BME280;9945;46.010;8.946;2023-04-01T13:30:18;96133.16;;;26.00;18.37
19596;BME280;9945;46.010;8.946;2023-04-01T13:32:51;96141.28;;;25.59;18.49
19596;BME280;9945;46.010;8.946;2023-04-01T13:35:27;96135.88;;;25.19;18.20
19596;BME280;9945;46.010;8.946;2023-04-01T13:38:12;96131.03;;;25.11;18.21
19596;BME280;9945;46.010;8.946;2023-04-01T13:40:49;96127.81;;;24.94;19.42
19596;BME280;9945;46.010;8.946;2023-04-01T13:43:23;96126.22;;;25.03;19.89
19596;BME280;9945;46.010;8.946;2023-04-01T13:46:09;96131.41;;;24.47;19.27
19596;BME280;9945;46.010;8.946;2023-04-01T13:49:00;96117.13;;;24.26;18.51
19596;BME280;9945;46.010;8.946;2023-04-01T13:51:48;96124.81;;;24.12;19.14
19596;BME280;9945;46.010;8.946;2023-04-01T13:54:47;96120.47;;;23.54;20.15
19596;BME280;9945;46.010;8.946;2023-04-01T13:57:33;96121.31;;;23.28;20.88
19596;BME280;9945;46.010;8.946;2023-04-01T14:00:25;96114.38;;;23.32;21.07
19596;BME280;9945;46.010;8.946;2023-04-01T14:03:14;96109.09;;;23.37;21.31
19596;BME280;9945;46.010;8.946;2023-04-01T14:06:00;96110.72;;;23.43;20.68
19596;BME280;9945;46.010;8.946;2023-04-01T14:08:38;96111.19;;;23.35;20.12
19596;BME280;9945;46.010;8.946;2023-04-01T14:11:15;96097.94;;;23.13;20.43
19596;BME280;9945;46.010;8.946;2023-04-01T14:13:51;96107.84;;;22.86;20.35
19596;BME280;9945;46.010;8.946;2023-04-01T14:19:24;96096.00;;;23.04;20.01
19596;BME280;9945;46.010;8.946;2023-04-01T14:21:58;96089.13;;;23.13;19.71
19596;BME280;9945;46.010;8.946;2023-04-01T14:24:45;96089.28;;;23.01;20.07
19596;BME280;9945;46.010;8.946;2023-04-01T14:27:34;96098.84;;;22.97;21.09
19596;BME280;9945;46.010;8.946;2023-04-01T14:30:32;96085.50;;;22.97;21.00
19596;BME280;9945;46.010;8.946;2023-04-01T14:33:10;96086.84;;;22.94;21.12
19596;BME280;9945;46.010;8.946;2023-04-01T14:35:43;96082.44;;;22.83;20.27
19596;BME280;9945;46.010;8.946;2023-04-01T14:38:30;96069.59;;;22.53;20.57
19596;BME280;9945;46.010;8.946;2023-04-01T14:41:19;96072.75;;;22.50;20.63
19596;BME280;9945;46.010;8.946;2023-04-01T14:43:55;96069.31;;;22.55;20.75
19596;BME280;9945;46.010;8.946;2023-04-01T14:49:34;96070.81;;;22.46;20.68
19596;BME280;9945;46.010;8.946;2023-04-01T14:52:11;96068.00;;;22.31;20.88
19596;BME280;9945;46.010;8.946;2023-04-01T14:54:42;96070.63;;;22.25;20.83
19596;BME280;9945;46.010;8.946;2023-04-01T14:57:12;96063.34;;;22.21;20.94
19596;BME280;9945;46.010;8.946;2023-04-01T14:59:41;96064.31;;;22.10;20.24
19596;BME280;9945;46.010;8.946;2023-04-01T15:02:28;96057.06;;;21.88;19.91
19596;BME280;9945;46.010;8.946;2023-04-01T15:05:04;96058.69;;;21.89;20.54
19596;BME280;9945;46.010;8.946;2023-04-01T15:08:01;96065.31;;;21.87;21.53
19596;BME280;9945;46.010;8.946;2023-04-01T15:11:11;96056.22;;;21.83;23.12